sensor_id;sensor_type;location;lat;lon;timestamp;pressure;altitude;pressure_sealevel;temperature
14851;BMP180;7517;48.400;11.770;2022-08-19T00:01:26;95944.00;;;24.60
14851;BMP180;7517;48.400;11.770;2022-08-19T00:03:55;95958.00;;;24.70
14851;BMP180;7517;48.400;11.770;2022-08-19T00:06:22;95970.00;;;24.70
14851;BMP180;7517;48.400;11.770;2022-08-19T00:08:49;95967.00;;;24.70
14851;BMP180;7517;48.400;11.770;2022-08-19T00:11:18;95983.00;;;24.70
14851;BMP180;7517;48.400;11.770;2022-08-19T00:13:48;95992.00;;;24.70
14851;BMP180;7517;48.400;11.770;2022-08-19T00:16:16;95993.00;;;24.70
14851;BMP180;7517;48.400;11.770;2022-08-19T00:18:44;95986.00;;;24.70
14851;BMP180;7517;48.400;11.770;2022-08-19T00:21:11;95983.00;;;24.80
14851;BMP180;7517;48.400;11.770;2022-08-19T00:23:38;95983.00;;;24.80
14851;BMP180;7517;48.400;11.770;2022-08-19T00:26:07;95988.00;;;24.80
14851;BMP180;7517;48.400;11.770;2022-08-19T00:28:34;95985.00;;;24.80
14851;BMP180;7517;48.400;11.770;2022-08-19T00:31:04;95979.00;;;24.70
14851;BMP180;7517;48.400;11.770;2022-08-19T00:33:32;95971.00;;;24.70
14851;BMP180;7517;48.400;11.770;2022-08-19T00:36:01;95966.00;;;24.70
14851;BMP180;7517;48.400;11.770;2022-08-19T00:38:32;95947.00;;;24.70
14851;BMP180;7517;48.400;11.770;2022-08-19T00:40:59;95940.00;;;24.70
14851;BMP180;7517;48.400;11.770;2022-08-19T00:43:28;95934.00;;;24.70
14851;BMP180;7517;48.400;11.770;2022-08-19T00:45:55;95930.00;;;24.70
14851;BMP180;7517;48.400;11.770;2022-08-19T00:48:23;95943.00;;;24.70
14851;BMP180;7517;48.400;11.770;2022-08-19T00:50:53;95936.00;;;24.70
14851;BMP180;7517;48.400;11.770;2022-08-19T00:53:26;95939.00;;;24.70
14851;BMP180;7517;48.400;11.770;2022-08-19T00:55:58;95939.00;;;24.60
14851;BMP180;7517;48.400;11.770;2022-08-19T00:58:30;95937.00;;;24.70
14851;BMP180;7517;48.400;11.770;2022-08-19T01:00:59;95928.00;;;24.70
14851;BMP180;7517;48.400;11.770;2022-08-19T01:03:28;95921.00;;;24.70
14851;BMP180;7517;48.400;11.770;2022-08-19T01:05:56;95924.00;;;24.70
14851;BMP180;7517;48.400;11.770;2022-08-19T01:08:23;95934.00;;;24.70
14851;BMP180;7517;48.400;11.770;2022-08-19T01:10:56;95942.00;;;24.70
14851;BMP180;7517;48.400;11.770;2022-08-19T01:13:30;95948.00;;;24.80
14851;BMP180;7517;48.400;11.770;2022-08-19T01:16:03;95959.00;;;24.80
14851;BMP180;7517;48.400;11.770;2022-08-19T01:18:39;95963.00;;;24.80
14851;BMP180;7517;48.400;11.770;2022-08-19T01:21:16;95947.00;;;24.80
14851;BMP180;7517;48.400;11.770;2022-08-19T01:23:46;95944.00;;;24.80
14851;BMP180;7517;48.400;11.770;2022-08-19T01:26:18;95938.00;;;24.80
14851;BMP180;7517;48.400;11.770;2022-08-19T01:28:48;95948.00;;;24.80
14851;BMP180;7517;48.400;11.770;2022-08-19T01:33:51;95961.00;;;24.80
14851;BMP180;7517;48.400;11.770;2022-08-19T01:36:26;95972.00;;;24.80
14851;BMP180;7517;48.400;11.770;2022-08-19T01:38:55;95963.00;;;24.70
14851;BMP180;7517;48.400;11.770;2022-08-19T01:41:24;95962.00;;;24.70
14851;BMP180;7517;48.400;11.770;2022-08-19T01:43:52;95956.00;;;24.70
14851;BMP180;7517;48.400;11.770;2022-08-19T01:46:20;95959.00;;;24.70
14851;BMP180;7517;48.400;11.770;2022-08-19T01:48:47;95958.00;;;24.70
14851;BMP180;7517;48.400;11.770;2022-08-19T01:51:14;95955.00;;;24.70
14851;BMP180;7517;48.400;11.770;2022-08-19T01:53:42;95959.00;;;24.70
14851;BMP180;7517;48.400;11.770;2022-08-19T01:56:10;95961.00;;;24.70
14851;BMP180;7517;48.400;11.770;2022-08-19T01:58:43;95961.00;;;24.70
14851;BMP180;7517;48.400;11.770;2022-08-19T02:01:12;95961.00;;;24.80
14851;BMP180;7517;48.400;11.770;2022-08-19T02:03:40;95972.00;;;24.70
14851;BMP180;7517;48.400;11.770;2022-08-19T02:06:07;95984.00;;;24.80
14851;BMP180;7517;48.400;11.770;2022-08-19T02:08:38;95994.00;;;24.80
14851;BMP180;7517;48.400;11.770;2022-08-19T02:11:06;95995.00;;;24.80
14851;BMP180;7517;48.400;11.770;2022-08-19T02:13:35;95984.00;;;24.80
14851;BMP180;7517;48.400;11.770;2022-08-19T02:16:03;95966.00;;;24.80
14851;BMP180;7517;48.400;11.770;2022-08-19T02:18:30;95953.00;;;24.80
14851;BMP180;7517;48.400;11.770;2022-08-19T02:20:57;95952.00;;;24.90
14851;BMP180;7517;48.400;11.770;2022-08-19T02:23:24;95973.00;;;24.90
14851;BMP180;7517;48.400;11.770;2022-08-19T02:25:52;95976.00;;;24.90
14851;BMP180;7517;48.400;11.770;2022-08-19T02:28:20;95980.00;;;24.90
14851;BMP180;7517;48.400;11.770;2022-08-19T02:30:48;95983.00;;;24.90
14851;BMP180;7517;48.400;11.770;2022-08-19T02:33:16;95979.00;;;24.90
14851;BMP180;7517;48.400;11.770;2022-08-19T02:35:44;95971.00;;;25.00
14851;BMP180;7517;48.400;11.770;2022-08-19T02:38:13;95978.00;;;25.00
14851;BMP180;7517;48.400;11.770;2022-08-19T02:40:54;95982.00;;;25.00
14851;BMP180;7517;48.400;11.770;2022-08-19T02:43:22;95986.00;;;25.00
14851;BMP180;7517;48.400;11.770;2022-08-19T02:45:53;95986.00;;;25.00
14851;BMP180;7517;48.400;11.770;2022-08-19T02:48:23;95990.00;;;25.00
14851;BMP180;7517;48.400;11.770;2022-08-19T02:50:52;95995.00;;;25.00
14851;BMP180;7517;48.400;11.770;2022-08-19T02:53:22;95986.00;;;25.00
14851;BMP180;7517;48.400;11.770;2022-08-19T02:55:50;95978.00;;;25.00
14851;BMP180;7517;48.400;11.770;2022-08-19T02:58:19;95961.00;;;24.90
14851;BMP180;7517;48.400;11.770;2022-08-19T03:00:50;95954.00;;;24.90
14851;BMP180;7517;48.400;11.770;2022-08-19T03:03:19;95956.00;;;24.90
14851;BMP180;7517;48.400;11.770;2022-08-19T03:05:47;95951.00;;;24.90
14851;BMP180;7517;48.400;11.770;2022-08-19T03:08:15;95943.00;;;24.90
14851;BMP180;7517;48.400;11.770;2022-08-19T03:10:44;95949.00;;;24.80
14851;BMP180;7517;48.400;11.770;2022-08-19T03:13:15;95952.00;;;24.90
14851;BMP180;7517;48.400;11.770;2022-08-19T03:15:45;95947.00;;;24.80
14851;BMP180;7517;48.400;11.770;2022-08-19T03:18:14;95943.00;;;24.90
14851;BMP180;7517;48.400;11.770;2022-08-19T03:20:46;95942.00;;;24.90
14851;BMP180;7517;48.400;11.770;2022-08-19T03:23:14;95954.00;;;24.90
14851;BMP180;7517;48.400;11.770;2022-08-19T03:25:45;95958.00;;;24.90
14851;BMP180;7517;48.400;11.770;2022-08-19T03:28:14;95963.00;;;24.90
14851;BMP180;7517;48.400;11.770;2022-08-19T03:30:53;95964.00;;;24.90
14851;BMP180;7517;48.400;11.770;2022-08-19T03:33:23;95960.00;;;24.90
14851;BMP180;7517;48.400;11.770;2022-08-19T03:36:03;95970.00;;;24.90
14851;BMP180;7517;48.400;11.770;2022-08-19T03:38:31;95971.00;;;24.90
14851;BMP180;7517;48.400;11.770;2022-08-19T03:41:04;95974.00;;;24.90
14851;BMP180;7517;48.400;11.770;2022-08-19T03:43:33;95975.00;;;24.80
14851;BMP180;7517;48.400;11.770;2022-08-19T03:46:03;95962.00;;;24.80
14851;BMP180;7517;48.400;11.770;2022-08-19T03:48:32;95976.00;;;24.80
14851;BMP180;7517;48.400;11.770;2022-08-19T03:51:02;95971.00;;;24.80
14851;BMP180;7517;48.400;11.770;2022-08-19T03:53:31;95978.00;;;24.80
14851;BMP180;7517;48.400;11.770;2022-08-19T03:56:00;95974.00;;;24.80
14851;BMP180;7517;48.400;11.770;2022-08-19T03:58:29;95979.00;;;24.70
14851;BMP180;7517;48.400;11.770;2022-08-19T04:00:57;95979.00;;;24.80
14851;BMP180;7517;48.400;11.770;2022-08-19T04:03:25;95978.00;;;24.80
14851;BMP180;7517;48.400;11.770;2022-08-19T04:05:53;95982.00;;;24.80
14851;BMP180;7517;48.400;11.770;2022-08-19T04:08:21;95983.00;;;24.80
14851;BMP180;7517;48.400;11.770;2022-08-19T04:10:49;95986.00;;;24.80
14851;BMP180;7517;48.400;11.770;2022-08-19T04:13:17;95987.00;;;24.80
14851;BMP180;7517;48.400;11.770;2022-08-19T04:15:46;95976.00;;;24.80
14851;BMP180;7517;48.400;11.770;2022-08-19T04:18:13;95970.00;;;24.80
14851;BMP180;7517;48.400;11.770;2022-08-19T04:20:43;95960.00;;;24.80
14851;BMP180;7517;48.400;11.770;2022-08-19T04:23:12;95973.00;;;24.80
14851;BMP180;7517;48.400;11.770;2022-08-19T04:25:43;95966.00;;;24.80
14851;BMP180;7517;48.400;11.770;2022-08-19T04:28:12;95979.00;;;24.90
14851;BMP180;7517;48.400;11.770;2022-08-19T04:30:43;95980.00;;;24.90
14851;BMP180;7517;48.400;11.770;2022-08-19T04:33:11;95976.00;;;24.90
14851;BMP180;7517;48.400;11.770;2022-08-19T04:35:42;95966.00;;;24.90
14851;BMP180;7517;48.400;11.770;2022-08-19T04:38:11;95964.00;;;24.90
14851;BMP180;7517;48.400;11.770;2022-08-19T04:40:43;95966.00;;;25.00
14851;BMP180;7517;48.400;11.770;2022-08-19T04:43:28;95978.00;;;25.00
14851;BMP180;7517;48.400;11.770;2022-08-19T04:45:55;95986.00;;;25.00
14851;BMP180;7517;48.400;11.770;2022-08-19T04:48:23;95993.00;;;25.00
14851;BMP180;7517;48.400;11.770;2022-08-19T04:50:53;95999.00;;;25.00
14851;BMP180;7517;48.400;11.770;2022-08-19T04:53:23;96005.00;;;25.00
14851;BMP180;7517;48.400;11.770;2022-08-19T04:55:57;96000.00;;;25.00
14851;BMP180;7517;48.400;11.770;2022-08-19T04:58:26;96016.00;;;25.00
14851;BMP180;7517;48.400;11.770;2022-08-19T05:00:54;96010.00;;;25.00
14851;BMP180;7517;48.400;11.770;2022-08-19T05:03:21;96014.00;;;25.00
14851;BMP180;7517;48.400;11.770;2022-08-19T05:05:48;96015.00;;;25.10
14851;BMP180;7517;48.400;11.770;2022-08-19T05:08:21;96018.00;;;25.10
14851;BMP180;7517;48.400;11.770;2022-08-19T05:10:51;96021.00;;;25.10
14851;BMP180;7517;48.400;11.770;2022-08-19T05:13:19;96017.00;;;25.10
14851;BMP180;7517;48.400;11.770;2022-08-19T05:15:58;96023.00;;;25.10
14851;BMP180;7517;48.400;11.770;2022-08-19T05:18:25;96027.00;;;25.10
14851;BMP180;7517;48.400;11.770;2022-08-19T05:21:16;96028.00;;;25.20
14851;BMP180;7517;48.400;11.770;2022-08-19T05:24:02;96034.00;;;25.20
14851;BMP180;7517;48.400;11.770;2022-08-19T05:26:29;96032.00;;;25.20
14851;BMP180;7517;48.400;11.770;2022-08-19T05:28:58;96029.00;;;25.20
14851;BMP180;7517;48.400;11.770;2022-08-19T05:31:25;96026.00;;;25.20
14851;BMP180;7517;48.400;11.770;2022-08-19T05:33:52;96025.00;;;25.20
14851;BMP180;7517;48.400;11.770;2022-08-19T05:36:19;96031.00;;;25.20
14851;BMP180;7517;48.400;11.770;2022-08-19T05:38:46;96024.00;;;25.20
14851;BMP180;7517;48.400;11.770;2022-08-19T05:41:15;96023.00;;;25.20
14851;BMP180;7517;48.400;11.770;2022-08-19T05:43:43;96023.00;;;25.20
14851;BMP180;7517;48.400;11.770;2022-08-19T05:46:17;96023.00;;;25.20
14851;BMP180;7517;48.400;11.770;2022-08-19T05:48:45;96020.00;;;25.20
14851;BMP180;7517;48.400;11.770;2022-08-19T05:51:12;96020.00;;;25.20
14851;BMP180;7517;48.400;11.770;2022-08-19T05:53:40;96017.00;;;25.20
14851;BMP180;7517;48.400;11.770;2022-08-19T05:56:11;96012.00;;;25.20
14851;BMP180;7517;48.400;11.770;2022-08-19T05:58:39;96013.00;;;25.20
14851;BMP180;7517;48.400;11.770;2022-08-19T06:01:13;96015.00;;;25.20
14851;BMP180;7517;48.400;11.770;2022-08-19T06:03:42;96005.00;;;25.20
14851;BMP180;7517;48.400;11.770;2022-08-19T06:06:11;96007.00;;;25.20
14851;BMP180;7517;48.400;11.770;2022-08-19T06:08:39;96006.00;;;25.20
14851;BMP180;7517;48.400;11.770;2022-08-19T06:11:18;96002.00;;;25.30
14851;BMP180;7517;48.400;11.770;2022-08-19T06:13:47;96005.00;;;25.20
14851;BMP180;7517;48.400;11.770;2022-08-19T06:16:18;96002.00;;;25.30
14851;BMP180;7517;48.400;11.770;2022-08-19T06:18:50;96008.00;;;25.20
14851;BMP180;7517;48.400;11.770;2022-08-19T06:21:19;96012.00;;;25.20
14851;BMP180;7517;48.400;11.770;2022-08-19T06:23:47;96016.00;;;25.20
14851;BMP180;7517;48.400;11.770;2022-08-19T06:26:15;96028.00;;;25.20
14851;BMP180;7517;48.400;11.770;2022-08-19T06:28:43;96028.00;;;25.20
14851;BMP180;7517;48.400;11.770;2022-08-19T06:31:13;96023.00;;;25.20
14851;BMP180;7517;48.400;11.770;2022-08-19T06:33:44;96031.00;;;25.20
14851;BMP180;7517;48.400;11.770;2022-08-19T06:36:19;96040.00;;;25.20
14851;BMP180;7517;48.400;11.770;2022-08-19T06:38:46;96046.00;;;25.20
14851;BMP180;7517;48.400;11.770;2022-08-19T06:41:14;96033.00;;;25.20
14851;BMP180;7517;48.400;11.770;2022-08-19T06:43:41;96031.00;;;25.20
14851;BMP180;7517;48.400;11.770;2022-08-19T06:46:14;96024.00;;;25.20
14851;BMP180;7517;48.400;11.770;2022-08-19T06:48:43;96022.00;;;25.20
14851;BMP180;7517;48.400;11.770;2022-08-19T06:51:11;96021.00;;;25.20
14851;BMP180;7517;48.400;11.770;2022-08-19T06:53:41;96018.00;;;25.20
14851;BMP180;7517;48.400;11.770;2022-08-19T06:56:14;96028.00;;;25.20
14851;BMP180;7517;48.400;11.770;2022-08-19T06:58:41;96027.00;;;25.20
14851;BMP180;7517;48.400;11.770;2022-08-19T07:01:09;96028.00;;;25.20
14851;BMP180;7517;48.400;11.770;2022-08-19T07:03:38;96030.00;;;25.20
14851;BMP180;7517;48.400;11.770;2022-08-19T07:06:11;96033.00;;;25.20
14851;BMP180;7517;48.400;11.770;2022-08-19T07:08:39;96033.00;;;25.20
14851;BMP180;7517;48.400;11.770;2022-08-19T07:11:08;96030.00;;;25.20
14851;BMP180;7517;48.400;11.770;2022-08-19T07:13:37;96030.00;;;25.20
14851;BMP180;7517;48.400;11.770;2022-08-19T07:16:05;96037.00;;;25.20
14851;BMP180;7517;48.400;11.770;2022-08-19T07:18:34;96030.00;;;25.20
14851;BMP180;7517;48.400;11.770;2022-08-19T07:21:07;96030.00;;;25.20
14851;BMP180;7517;48.400;11.770;2022-08-19T07:23:36;96031.00;;;25.20
14851;BMP180;7517;48.400;11.770;2022-08-19T07:26:06;96027.00;;;25.20
14851;BMP180;7517;48.400;11.770;2022-08-19T07:28:33;96021.00;;;25.20
14851;BMP180;7517;48.400;11.770;2022-08-19T07:31:01;96032.00;;;25.30
14851;BMP180;7517;48.400;11.770;2022-08-19T07:33:29;96023.00;;;25.30
14851;BMP180;7517;48.400;11.770;2022-08-19T07:35:58;96020.00;;;25.30
14851;BMP180;7517;48.400;11.770;2022-08-19T07:38:27;96008.00;;;25.30
14851;BMP180;7517;48.400;11.770;2022-08-19T07:40:54;96004.00;;;25.40
14851;BMP180;7517;48.400;11.770;2022-08-19T07:43:21;96004.00;;;25.40
14851;BMP180;7517;48.400;11.770;2022-08-19T07:45:52;95998.00;;;25.50
14851;BMP180;7517;48.400;11.770;2022-08-19T07:48:22;95991.00;;;25.50
14851;BMP180;7517;48.400;11.770;2022-08-19T07:50:52;95995.00;;;25.60
14851;BMP180;7517;48.400;11.770;2022-08-19T07:53:20;96004.00;;;25.70
14851;BMP180;7517;48.400;11.770;2022-08-19T07:55:49;96013.00;;;25.70
14851;BMP180;7517;48.400;11.770;2022-08-19T07:58:20;96009.00;;;25.70
14851;BMP180;7517;48.400;11.770;2022-08-19T08:00:49;95997.00;;;25.70
14851;BMP180;7517;48.400;11.770;2022-08-19T08:03:21;95994.00;;;25.70
14851;BMP180;7517;48.400;11.770;2022-08-19T08:06:10;96002.00;;;25.70
14851;BMP180;7517;48.400;11.770;2022-08-19T08:08:55;96000.00;;;25.70
14851;BMP180;7517;48.400;11.770;2022-08-19T08:11:41;96003.00;;;25.70
14851;BMP180;7517;48.400;11.770;2022-08-19T08:14:16;95990.00;;;25.70
14851;BMP180;7517;48.400;11.770;2022-08-19T08:16:44;95992.00;;;25.70
14851;BMP180;7517;48.400;11.770;2022-08-19T08:19:12;95986.00;;;25.70
14851;BMP180;7517;48.400;11.770;2022-08-19T08:21:42;95979.00;;;25.80
14851;BMP180;7517;48.400;11.770;2022-08-19T08:24:10;95971.00;;;25.80
14851;BMP180;7517;48.400;11.770;2022-08-19T08:26:39;95970.00;;;25.80
14851;BMP180;7517;48.400;11.770;2022-08-19T08:29:07;95972.00;;;25.80
14851;BMP180;7517;48.400;11.770;2022-08-19T08:31:37;95967.00;;;25.80
14851;BMP180;7517;48.400;11.770;2022-08-19T08:34:04;95976.00;;;25.90
14851;BMP180;7517;48.400;11.770;2022-08-19T08:36:31;95986.00;;;25.90
14851;BMP180;7517;48.400;11.770;2022-08-19T08:38:59;95995.00;;;25.90
14851;BMP180;7517;48.400;11.770;2022-08-19T08:41:34;95991.00;;;26.00
14851;BMP180;7517;48.400;11.770;2022-08-19T08:44:05;95998.00;;;26.00
14851;BMP180;7517;48.400;11.770;2022-08-19T08:46:38;96012.00;;;26.00
14851;BMP180;7517;48.400;11.770;2022-08-19T08:49:20;96017.00;;;26.00
14851;BMP180;7517;48.400;11.770;2022-08-19T08:51:59;96022.00;;;26.00
14851;BMP180;7517;48.400;11.770;2022-08-19T08:54:34;96022.00;;;26.00
14851;BMP180;7517;48.400;11.770;2022-08-19T08:57:09;96030.00;;;26.00
14851;BMP180;7517;48.400;11.770;2022-08-19T08:59:41;96037.00;;;26.00
14851;BMP180;7517;48.400;11.770;2022-08-19T09:02:10;96041.00;;;25.90
14851;BMP180;7517;48.400;11.770;2022-08-19T09:04:38;96038.00;;;25.90
14851;BMP180;7517;48.400;11.770;2022-08-19T09:07:27;96044.00;;;25.90
14851;BMP180;7517;48.400;11.770;2022-08-19T09:10:08;96036.00;;;25.90
14851;BMP180;7517;48.400;11.770;2022-08-19T09:12:47;96043.00;;;25.90
14851;BMP180;7517;48.400;11.770;2022-08-19T09:15:29;96044.00;;;25.80
14851;BMP180;7517;48.400;11.770;2022-08-19T09:18:00;96039.00;;;25.80
14851;BMP180;7517;48.400;11.770;2022-08-19T09:20:29;96040.00;;;25.80
14851;BMP180;7517;48.400;11.770;2022-08-19T09:22:58;96042.00;;;25.80
14851;BMP180;7517;48.400;11.770;2022-08-19T09:25:26;96049.00;;;25.80
14851;BMP180;7517;48.400;11.770;2022-08-19T09:27:54;96051.00;;;25.80
14851;BMP180;7517;48.400;11.770;2022-08-19T09:30:26;96053.00;;;25.70
14851;BMP180;7517;48.400;11.770;2022-08-19T09:32:54;96050.00;;;25.70
14851;BMP180;7517;48.400;11.770;2022-08-19T09:35:24;96046.00;;;25.70
14851;BMP180;7517;48.400;11.770;2022-08-19T09:37:53;96042.00;;;25.70
14851;BMP180;7517;48.400;11.770;2022-08-19T09:40:20;96043.00;;;25.60
14851;BMP180;7517;48.400;11.770;2022-08-19T09:42:47;96040.00;;;25.60
14851;BMP180;7517;48.400;11.770;2022-08-19T09:45:15;96039.00;;;25.60
14851;BMP180;7517;48.400;11.770;2022-08-19T09:47:44;96045.00;;;25.60
14851;BMP180;7517;48.400;11.770;2022-08-19T09:50:12;96046.00;;;25.60
14851;BMP180;7517;48.400;11.770;2022-08-19T09:52:40;96040.00;;;25.50
14851;BMP180;7517;48.400;11.770;2022-08-19T09:55:10;96039.00;;;25.50
14851;BMP180;7517;48.400;11.770;2022-08-19T09:57:38;96042.00;;;25.50
14851;BMP180;7517;48.400;11.770;2022-08-19T10:00:08;96046.00;;;25.50
14851;BMP180;7517;48.400;11.770;2022-08-19T10:02:36;96038.00;;;25.50
14851;BMP180;7517;48.400;11.770;2022-08-19T10:05:05;96043.00;;;25.50
14851;BMP180;7517;48.400;11.770;2022-08-19T10:07:50;96045.00;;;25.50
14851;BMP180;7517;48.400;11.770;2022-08-19T10:10:17;96043.00;;;25.50
14851;BMP180;7517;48.400;11.770;2022-08-19T10:12:46;96043.00;;;25.50
14851;BMP180;7517;48.400;11.770;2022-08-19T10:15:14;96045.00;;;25.50
14851;BMP180;7517;48.400;11.770;2022-08-19T10:17:42;96043.00;;;25.50
14851;BMP180;7517;48.400;11.770;2022-08-19T10:20:11;96048.00;;;25.50
14851;BMP180;7517;48.400;11.770;2022-08-19T10:22:38;96053.00;;;25.50
14851;BMP180;7517;48.400;11.770;2022-08-19T10:25:08;96055.00;;;25.50
14851;BMP180;7517;48.400;11.770;2022-08-19T10:27:35;96054.00;;;25.50
14851;BMP180;7517;48.400;11.770;2022-08-19T10:30:04;96055.00;;;25.60
14851;BMP180;7517;48.400;11.770;2022-08-19T10:32:32;96051.00;;;25.60
14851;BMP180;7517;48.400;11.770;2022-08-19T10:34:59;96056.00;;;25.70
14851;BMP180;7517;48.400;11.770;2022-08-19T10:37:28;96053.00;;;25.70
14851;BMP180;7517;48.400;11.770;2022-08-19T10:39:56;96051.00;;;25.80
14851;BMP180;7517;48.400;11.770;2022-08-19T10:42:23;96049.00;;;25.80
14851;BMP180;7517;48.400;11.770;2022-08-19T10:44:50;96043.00;;;25.90
14851;BMP180;7517;48.400;11.770;2022-08-19T10:47:18;96047.00;;;25.90
14851;BMP180;7517;48.400;11.770;2022-08-19T10:49:49;96031.00;;;26.00
14851;BMP180;7517;48.400;11.770;2022-08-19T10:52:34;96024.00;;;26.10
14851;BMP180;7517;48.400;11.770;2022-08-19T10:55:06;96026.00;;;26.30
14851;BMP180;7517;48.400;11.770;2022-08-19T10:57:51;96037.00;;;26.40
14851;BMP180;7517;48.400;11.770;2022-08-19T11:00:19;96045.00;;;26.50
14851;BMP180;7517;48.400;11.770;2022-08-19T11:02:48;96038.00;;;26.50
14851;BMP180;7517;48.400;11.770;2022-08-19T11:05:16;96030.00;;;26.50
14851;BMP180;7517;48.400;11.770;2022-08-19T11:07:45;96034.00;;;26.50
14851;BMP180;7517;48.400;11.770;2022-08-19T11:10:14;96027.00;;;26.50
14851;BMP180;7517;48.400;11.770;2022-08-19T11:12:45;96032.00;;;26.50
14851;BMP180;7517;48.400;11.770;2022-08-19T11:15:13;96029.00;;;26.50
14851;BMP180;7517;48.400;11.770;2022-08-19T11:17:41;96025.00;;;26.60
14851;BMP180;7517;48.400;11.770;2022-08-19T11:20:11;96018.00;;;26.60
14851;BMP180;7517;48.400;11.770;2022-08-19T11:22:39;96022.00;;;26.70
14851;BMP180;7517;48.400;11.770;2022-08-19T11:25:10;96027.00;;;26.80
14851;BMP180;7517;48.400;11.770;2022-08-19T11:27:39;96015.00;;;26.90
14851;BMP180;7517;48.400;11.770;2022-08-19T11:30:11;96021.00;;;27.10
14851;BMP180;7517;48.400;11.770;2022-08-19T11:32:39;96020.00;;;27.20
14851;BMP180;7517;48.400;11.770;2022-08-19T11:35:08;96019.00;;;27.40
14851;BMP180;7517;48.400;11.770;2022-08-19T11:37:36;96019.00;;;27.50
14851;BMP180;7517;48.400;11.770;2022-08-19T11:40:08;96019.00;;;27.60
14851;BMP180;7517;48.400;11.770;2022-08-19T11:42:35;96018.00;;;27.70
14851;BMP180;7517;48.400;11.770;2022-08-19T11:45:20;96011.00;;;27.70
14851;BMP180;7517;48.400;11.770;2022-08-19T11:47:47;96012.00;;;27.70
14851;BMP180;7517;48.400;11.770;2022-08-19T11:50:15;96020.00;;;27.80
14851;BMP180;7517;48.400;11.770;2022-08-19T11:52:43;96018.00;;;27.80
14851;BMP180;7517;48.400;11.770;2022-08-19T11:55:13;96014.00;;;27.90
14851;BMP180;7517;48.400;11.770;2022-08-19T11:57:41;96003.00;;;27.90
14851;BMP180;7517;48.400;11.770;2022-08-19T12:00:11;96003.00;;;28.00
14851;BMP180;7517;48.400;11.770;2022-08-19T12:02:39;96004.00;;;28.10
14851;BMP180;7517;48.400;11.770;2022-08-19T12:05:08;96009.00;;;28.20
14851;BMP180;7517;48.400;11.770;2022-08-19T12:07:36;96006.00;;;28.30
14851;BMP180;7517;48.400;11.770;2022-08-19T12:10:04;95997.00;;;28.40
14851;BMP180;7517;48.400;11.770;2022-08-19T12:12:32;95990.00;;;28.40
14851;BMP180;7517;48.400;11.770;2022-08-19T12:15:00;96002.00;;;28.50
14851;BMP180;7517;48.400;11.770;2022-08-19T12:17:28;96003.00;;;28.50
14851;BMP180;7517;48.400;11.770;2022-08-19T12:19:56;96007.00;;;28.50
14851;BMP180;7517;48.400;11.770;2022-08-19T12:22:23;96025.00;;;28.50
14851;BMP180;7517;48.400;11.770;2022-08-19T12:24:50;96025.00;;;28.40
14851;BMP180;7517;48.400;11.770;2022-08-19T12:27:19;96014.00;;;28.40
14851;BMP180;7517;48.400;11.770;2022-08-19T12:29:47;96008.00;;;28.40
14851;BMP180;7517;48.400;11.770;2022-08-19T12:32:15;96006.00;;;28.30
14851;BMP180;7517;48.400;11.770;2022-08-19T12:34:43;96022.00;;;28.30
14851;BMP180;7517;48.400;11.770;2022-08-19T12:37:10;96017.00;;;28.20
14851;BMP180;7517;48.400;11.770;2022-08-19T12:39:41;96023.00;;;28.10
14851;BMP180;7517;48.400;11.770;2022-08-19T12:42:10;96011.00;;;28.00
14851;BMP180;7517;48.400;11.770;2022-08-19T12:44:39;96024.00;;;28.00
14851;BMP180;7517;48.400;11.770;2022-08-19T12:47:11;96028.00;;;28.00
14851;BMP180;7517;48.400;11.770;2022-08-19T12:49:39;96026.00;;;28.00
14851;BMP180;7517;48.400;11.770;2022-08-19T12:52:08;96025.00;;;28.10
14851;BMP180;7517;48.400;11.770;2022-08-19T12:54:36;96031.00;;;28.20
14851;BMP180;7517;48.400;11.770;2022-08-19T12:57:06;96026.00;;;28.20
14851;BMP180;7517;48.400;11.770;2022-08-19T12:59:34;96033.00;;;28.20
14851;BMP180;7517;48.400;11.770;2022-08-19T13:02:02;96035.00;;;28.20
14851;BMP180;7517;48.400;11.770;2022-08-19T13:04:33;96037.00;;;28.30
14851;BMP180;7517;48.400;11.770;2022-08-19T13:07:02;96033.00;;;28.30
14851;BMP180;7517;48.400;11.770;2022-08-19T13:09:29;96042.00;;;28.30
14851;BMP180;7517;48.400;11.770;2022-08-19T13:11:57;96041.00;;;28.30
14851;BMP180;7517;48.400;11.770;2022-08-19T13:14:28;96034.00;;;28.20
14851;BMP180;7517;48.400;11.770;2022-08-19T13:16:57;96036.00;;;28.20
14851;BMP180;7517;48.400;11.770;2022-08-19T13:19:24;96034.00;;;28.10
14851;BMP180;7517;48.400;11.770;2022-08-19T13:21:53;96036.00;;;28.00
14851;BMP180;7517;48.400;11.770;2022-08-19T13:24:24;96035.00;;;28.00
14851;BMP180;7517;48.400;11.770;2022-08-19T13:26:52;96033.00;;;27.90
14851;BMP180;7517;48.400;11.770;2022-08-19T13:29:19;96025.00;;;27.90
14851;BMP180;7517;48.400;11.770;2022-08-19T13:32:03;96022.00;;;27.80
14851;BMP180;7517;48.400;11.770;2022-08-19T13:35:03;96029.00;;;27.70
14851;BMP180;7517;48.400;11.770;2022-08-19T13:37:32;96035.00;;;27.70
14851;BMP180;7517;48.400;11.770;2022-08-19T13:40:18;96035.00;;;27.60
14851;BMP180;7517;48.400;11.770;2022-08-19T13:42:50;96032.00;;;27.60
14851;BMP180;7517;48.400;11.770;2022-08-19T13:45:21;96036.00;;;27.50
14851;BMP180;7517;48.400;11.770;2022-08-19T13:47:51;96033.00;;;27.50
14851;BMP180;7517;48.400;11.770;2022-08-19T13:50:22;96032.00;;;27.50
14851;BMP180;7517;48.400;11.770;2022-08-19T13:52:52;96036.00;;;27.40
14851;BMP180;7517;48.400;11.770;2022-08-19T13:55:20;96040.00;;;27.40
14851;BMP180;7517;48.400;11.770;2022-08-19T13:57:50;96032.00;;;27.40
14851;BMP180;7517;48.400;11.770;2022-08-19T14:00:19;96032.00;;;27.50
14851;BMP180;7517;48.400;11.770;2022-08-19T14:02:49;96023.00;;;27.50
14851;BMP180;7517;48.400;11.770;2022-08-19T14:05:19;96032.00;;;27.40
14851;BMP180;7517;48.400;11.770;2022-08-19T14:07:46;96030.00;;;27.40
14851;BMP180;7517;48.400;11.770;2022-08-19T14:10:17;96032.00;;;27.40
14851;BMP180;7517;48.400;11.770;2022-08-19T14:12:45;96031.00;;;27.40
14851;BMP180;7517;48.400;11.770;2022-08-19T14:15:14;96035.00;;;27.40
14851;BMP180;7517;48.400;11.770;2022-08-19T14:17:44;96036.00;;;27.40
14851;BMP180;7517;48.400;11.770;2022-08-19T14:20:13;96033.00;;;27.40
14851;BMP180;7517;48.400;11.770;2022-08-19T14:22:41;96030.00;;;27.50
14851;BMP180;7517;48.400;11.770;2022-08-19T14:25:13;96019.00;;;27.50
14851;BMP180;7517;48.400;11.770;2022-08-19T14:27:43;96037.00;;;27.50